sensor_id;sensor_type;location;lat;lon;timestamp;temperature;humidity
21801;DHT22;11062;51.164;16.924;2023-05-07T00:01:23;31.10;38.00
21801;DHT22;11062;51.164;16.924;2023-05-07T00:03:55;31.00;38.00
21801;DHT22;11062;51.164;16.924;2023-05-07T00:06:24;31.00;37.80
21801;DHT22;11062;51.164;16.924;2023-05-07T00:08:55;31.00;37.80
21801;DHT22;11062;51.164;16.924;2023-05-07T00:11:24;31.00;38.10
21801;DHT22;11062;51.164;16.924;2023-05-07T00:13:51;30.90;37.90
21801;DHT22;11062;51.164;16.924;2023-05-07T00:16:20;31.00;38.00
21801;DHT22;11062;51.164;16.924;2023-05-07T00:18:46;31.00;37.90
21801;DHT22;11062;51.164;16.924;2023-05-07T00:21:12;30.90;38.00
21801;DHT22;11062;51.164;16.924;2023-05-07T00:23:38;30.90;37.90
21801;DHT22;11062;51.164;16.924;2023-05-07T00:26:04;31.00;38.10
21801;DHT22;11062;51.164;16.924;2023-05-07T00:28:30;31.00;37.90
21801;DHT22;11062;51.164;16.924;2023-05-07T00:30:56;30.90;38.00
21801;DHT22;11062;51.164;16.924;2023-05-07T00:33:24;31.00;37.90
21801;DHT22;11062;51.164;16.924;2023-05-07T00:35:52;31.20;38.10
21801;DHT22;11062;51.164;16.924;2023-05-07T00:38:20;31.00;37.90
21801;DHT22;11062;51.164;16.924;2023-05-07T00:40:45;31.00;37.80
21801;DHT22;11062;51.164;16.924;2023-05-07T00:43:12;30.80;37.80
21801;DHT22;11062;51.164;16.924;2023-05-07T00:45:38;31.00;37.80
21801;DHT22;11062;51.164;16.924;2023-05-07T00:48:07;31.10;38.00
21801;DHT22;11062;51.164;16.924;2023-05-07T00:50:36;31.10;37.90
21801;DHT22;11062;51.164;16.924;2023-05-07T00:53:02;30.90;37.70
21801;DHT22;11062;51.164;16.924;2023-05-07T00:55:34;31.00;37.80
21801;DHT22;11062;51.164;16.924;2023-05-07T00:58:03;31.10;37.90
21801;DHT22;11062;51.164;16.924;2023-05-07T01:00:36;31.10;37.90
21801;DHT22;11062;51.164;16.924;2023-05-07T01:03:07;31.00;37.80
21801;DHT22;11062;51.164;16.924;2023-05-07T01:05:34;31.00;37.80
21801;DHT22;11062;51.164;16.924;2023-05-07T01:08:03;31.00;37.80
21801;DHT22;11062;51.164;16.924;2023-05-07T01:10:30;31.00;37.90
21801;DHT22;11062;51.164;16.924;2023-05-07T01:12:57;30.80;37.90
21801;DHT22;11062;51.164;16.924;2023-05-07T01:15:24;30.90;37.90
21801;DHT22;11062;51.164;16.924;2023-05-07T01:17:50;30.80;37.90
21801;DHT22;11062;51.164;16.924;2023-05-07T01:20:18;30.80;38.10
21801;DHT22;11062;51.164;16.924;2023-05-07T01:22:44;30.90;38.10
21801;DHT22;11062;51.164;16.924;2023-05-07T01:25:14;30.80;38.10
21801;DHT22;11062;51.164;16.924;2023-05-07T01:27:41;30.60;37.80
21801;DHT22;11062;51.164;16.924;2023-05-07T01:30:08;30.80;38.10
21801;DHT22;11062;51.164;16.924;2023-05-07T01:32:42;30.80;37.90
21801;DHT22;11062;51.164;16.924;2023-05-07T01:35:18;30.80;37.90
21801;DHT22;11062;51.164;16.924;2023-05-07T01:37:46;30.80;38.10
21801;DHT22;11062;51.164;16.924;2023-05-07T01:40:16;30.40;38.40
21801;DHT22;11062;51.164;16.924;2023-05-07T01:42:43;30.80;37.90
21801;DHT22;11062;51.164;16.924;2023-05-07T01:45:14;30.50;37.80
21801;DHT22;11062;51.164;16.924;2023-05-07T01:47:40;30.70;38.00
21801;DHT22;11062;51.164;16.924;2023-05-07T01:50:07;30.50;37.90
21801;DHT22;11062;51.164;16.924;2023-05-07T01:52:39;30.70;37.90
21801;DHT22;11062;51.164;16.924;2023-05-07T01:55:06;30.50;38.00
21801;DHT22;11062;51.164;16.924;2023-05-07T01:57:35;30.80;38.00
21801;DHT22;11062;51.164;16.924;2023-05-07T02:00:01;30.70;38.10
21801;DHT22;11062;51.164;16.924;2023-05-07T02:02:33;30.70;37.80
21801;DHT22;11062;51.164;16.924;2023-05-07T02:05:00;30.50;37.80
21801;DHT22;11062;51.164;16.924;2023-05-07T02:07:27;30.60;37.80
21801;DHT22;11062;51.164;16.924;2023-05-07T02:09:55;30.50;37.80
21801;DHT22;11062;51.164;16.924;2023-05-07T02:12:22;30.50;37.90
21801;DHT22;11062;51.164;16.924;2023-05-07T02:14:49;30.50;37.90
21801;DHT22;11062;51.164;16.924;2023-05-07T02:17:15;30.50;37.80
21801;DHT22;11062;51.164;16.924;2023-05-07T02:19:41;30.60;38.10
21801;DHT22;11062;51.164;16.924;2023-05-07T02:22:07;30.60;38.20
21801;DHT22;11062;51.164;16.924;2023-05-07T02:24:33;30.60;38.00
21801;DHT22;11062;51.164;16.924;2023-05-07T02:27:02;30.60;37.90
21801;DHT22;11062;51.164;16.924;2023-05-07T02:29:30;30.70;37.90
21801;DHT22;11062;51.164;16.924;2023-05-07T02:31:56;30.60;37.80
21801;DHT22;11062;51.164;16.924;2023-05-07T02:34:22;30.60;37.80
21801;DHT22;11062;51.164;16.924;2023-05-07T02:36:48;30.60;38.00
21801;DHT22;11062;51.164;16.924;2023-05-07T02:39:14;30.60;37.80
21801;DHT22;11062;51.164;16.924;2023-05-07T02:41:41;30.50;37.70
21801;DHT22;11062;51.164;16.924;2023-05-07T02:44:12;30.50;38.00
21801;DHT22;11062;51.164;16.924;2023-05-07T02:46:41;30.60;37.50
21801;DHT22;11062;51.164;16.924;2023-05-07T02:49:09;30.50;37.80
21801;DHT22;11062;51.164;16.924;2023-05-07T02:51:35;30.50;37.70
21801;DHT22;11062;51.164;16.924;2023-05-07T02:54:04;30.50;38.00
21801;DHT22;11062;51.164;16.924;2023-05-07T02:56:33;29.70;37.60
21801;DHT22;11062;51.164;16.924;2023-05-07T02:58:59;30.30;38.30
21801;DHT22;11062;51.164;16.924;2023-05-07T03:01:27;30.30;37.80
21801;DHT22;11062;51.164;16.924;2023-05-07T03:03:56;30.30;38.00
21801;DHT22;11062;51.164;16.924;2023-05-07T03:06:28;30.20;37.80
21801;DHT22;11062;51.164;16.924;2023-05-07T03:08:56;29.50;37.50
21801;DHT22;11062;51.164;16.924;2023-05-07T03:11:22;30.30;38.40
21801;DHT22;11062;51.164;16.924;2023-05-07T03:13:48;30.40;39.20
21801;DHT22;11062;51.164;16.924;2023-05-07T03:16:20;30.40;37.90
21801;DHT22;11062;51.164;16.924;2023-05-07T03:18:46;29.50;38.00
21801;DHT22;11062;51.164;16.924;2023-05-07T03:21:14;30.30;38.20
21801;DHT22;11062;51.164;16.924;2023-05-07T03:23:40;30.40;38.50
21801;DHT22;11062;51.164;16.924;2023-05-07T03:26:06;30.40;37.70
21801;DHT22;11062;51.164;16.924;2023-05-07T03:28:32;30.40;38.40
21801;DHT22;11062;51.164;16.924;2023-05-07T03:30:58;30.50;38.50
21801;DHT22;11062;51.164;16.924;2023-05-07T03:33:24;30.40;38.60
21801;DHT22;11062;51.164;16.924;2023-05-07T03:35:50;30.40;38.70
21801;DHT22;11062;51.164;16.924;2023-05-07T03:38:16;29.40;39.10
21801;DHT22;11062;51.164;16.924;2023-05-07T03:40:45;30.30;38.40
21801;DHT22;11062;51.164;16.924;2023-05-07T03:43:11;30.40;38.00
21801;DHT22;11062;51.164;16.924;2023-05-07T03:45:37;29.70;38.40
21801;DHT22;11062;51.164;16.924;2023-05-07T03:48:06;30.00;38.80
21801;DHT22;11062;51.164;16.924;2023-05-07T03:50:31;30.10;39.30
21801;DHT22;11062;51.164;16.924;2023-05-07T03:52:57;30.10;38.70
21801;DHT22;11062;51.164;16.924;2023-05-07T03:55:23;29.20;38.70
21801;DHT22;11062;51.164;16.924;2023-05-07T03:57:50;30.10;39.20
21801;DHT22;11062;51.164;16.924;2023-05-07T04:00:16;30.10;39.20
21801;DHT22;11062;51.164;16.924;2023-05-07T04:02:42;30.10;38.70
21801;DHT22;11062;51.164;16.924;2023-05-07T04:05:08;28.90;38.50
21801;DHT22;11062;51.164;16.924;2023-05-07T04:07:37;29.30;38.20
21801;DHT22;11062;51.164;16.924;2023-05-07T04:10:06;29.50;39.00
21801;DHT22;11062;51.164;16.924;2023-05-07T04:12:35;29.20;38.30
21801;DHT22;11062;51.164;16.924;2023-05-07T04:15:09;29.80;38.80
21801;DHT22;11062;51.164;16.924;2023-05-07T04:17:36;29.30;38.10
21801;DHT22;11062;51.164;16.924;2023-05-07T04:20:02;28.70;38.80
21801;DHT22;11062;51.164;16.924;2023-05-07T04:22:28;29.70;38.90
21801;DHT22;11062;51.164;16.924;2023-05-07T04:24:58;29.60;39.30
21801;DHT22;11062;51.164;16.924;2023-05-07T04:27:24;29.80;38.90
21801;DHT22;11062;51.164;16.924;2023-05-07T04:29:53;29.80;38.60
21801;DHT22;11062;51.164;16.924;2023-05-07T04:32:22;29.70;38.70
21801;DHT22;11062;51.164;16.924;2023-05-07T04:34:53;29.80;39.10
21801;DHT22;11062;51.164;16.924;2023-05-07T04:37:22;29.80;39.50
21801;DHT22;11062;51.164;16.924;2023-05-07T04:39:49;29.80;38.70
21801;DHT22;11062;51.164;16.924;2023-05-07T04:42:18;30.00;39.60
21801;DHT22;11062;51.164;16.924;2023-05-07T04:44:45;29.90;38.30
21801;DHT22;11062;51.164;16.924;2023-05-07T04:47:11;29.70;38.60
21801;DHT22;11062;51.164;16.924;2023-05-07T04:49:38;29.80;38.70
21801;DHT22;11062;51.164;16.924;2023-05-07T04:52:04;30.00;39.60
21801;DHT22;11062;51.164;16.924;2023-05-07T04:54:33;29.00;37.90
21801;DHT22;11062;51.164;16.924;2023-05-07T04:57:03;30.00;38.40
21801;DHT22;11062;51.164;16.924;2023-05-07T04:59:32;29.90;38.10
21801;DHT22;11062;51.164;16.924;2023-05-07T05:02:01;30.20;38.70
21801;DHT22;11062;51.164;16.924;2023-05-07T05:04:32;28.80;37.20
21801;DHT22;11062;51.164;16.924;2023-05-07T05:07:01;30.20;37.80
21801;DHT22;11062;51.164;16.924;2023-05-07T05:09:29;30.30;37.40
21801;DHT22;11062;51.164;16.924;2023-05-07T05:11:59;30.30;38.00
21801;DHT22;11062;51.164;16.924;2023-05-07T05:14:29;31.60;38.60
21801;DHT22;11062;51.164;16.924;2023-05-07T05:16:58;30.40;37.90
21801;DHT22;11062;51.164;16.924;2023-05-07T05:19:27;30.40;38.00
21801;DHT22;11062;51.164;16.924;2023-05-07T05:21:53;29.50;38.00
21801;DHT22;11062;51.164;16.924;2023-05-07T05:24:19;30.30;37.80
21801;DHT22;11062;51.164;16.924;2023-05-07T05:26:48;30.50;38.40
21801;DHT22;11062;51.164;16.924;2023-05-07T05:29:14;30.30;38.10
21801;DHT22;11062;51.164;16.924;2023-05-07T05:31:40;30.30;38.20
21801;DHT22;11062;51.164;16.924;2023-05-07T05:34:07;30.20;38.20
21801;DHT22;11062;51.164;16.924;2023-05-07T05:36:35;30.20;37.90
21801;DHT22;11062;51.164;16.924;2023-05-07T05:39:04;29.90;37.50
21801;DHT22;11062;51.164;16.924;2023-05-07T05:41:33;30.30;37.30
21801;DHT22;11062;51.164;16.924;2023-05-07T05:44:02;30.50;37.00
21801;DHT22;11062;51.164;16.924;2023-05-07T05:46:31;30.40;37.20
21801;DHT22;11062;51.164;16.924;2023-05-07T05:48:58;29.70;36.40
21801;DHT22;11062;51.164;16.924;2023-05-07T05:51:27;30.40;36.60
21801;DHT22;11062;51.164;16.924;2023-05-07T05:53:54;30.40;36.80
21801;DHT22;11062;51.164;16.924;2023-05-07T05:56:23;30.60;36.60
21801;DHT22;11062;51.164;16.924;2023-05-07T06:06:23;31.10;36.20
21801;DHT22;11062;51.164;16.924;2023-05-07T06:09:37;31.20;36.00
21801;DHT22;11062;51.164;16.924;2023-05-07T06:16:33;31.10;35.70
21801;DHT22;11062;51.164;16.924;2023-05-07T06:19:36;31.40;35.90
21801;DHT22;11062;51.164;16.924;2023-05-07T06:25:57;31.40;35.60
21801;DHT22;11062;51.164;16.924;2023-05-07T06:28:34;31.20;35.50
21801;DHT22;11062;51.164;16.924;2023-05-07T06:35:01;31.20;35.30
21801;DHT22;11062;51.164;16.924;2023-05-07T06:41:46;31.10;35.90
21801;DHT22;11062;51.164;16.924;2023-05-07T06:45:36;31.10;35.60
21801;DHT22;11062;51.164;16.924;2023-05-07T06:48:13;31.20;35.50
21801;DHT22;11062;51.164;16.924;2023-05-07T06:50:39;31.30;35.50
21801;DHT22;11062;51.164;16.924;2023-05-07T06:53:08;31.20;35.50
21801;DHT22;11062;51.164;16.924;2023-05-07T06:55:37;30.70;35.40
21801;DHT22;11062;51.164;16.924;2023-05-07T06:58:07;31.20;35.20
21801;DHT22;11062;51.164;16.924;2023-05-07T07:00:33;31.30;35.20
21801;DHT22;11062;51.164;16.924;2023-05-07T07:03:02;31.20;34.80
21801;DHT22;11062;51.164;16.924;2023-05-07T07:05:28;31.30;35.10
21801;DHT22;11062;51.164;16.924;2023-05-07T07:07:57;31.60;34.80
21801;DHT22;11062;51.164;16.924;2023-05-07T07:10:43;31.90;34.90
21801;DHT22;11062;51.164;16.924;2023-05-07T07:13:14;31.90;34.80
21801;DHT22;11062;51.164;16.924;2023-05-07T07:15:43;31.80;35.40
21801;DHT22;11062;51.164;16.924;2023-05-07T07:18:13;31.60;34.30
21801;DHT22;11062;51.164;16.924;2023-05-07T07:20:39;31.70;34.00
21801;DHT22;11062;51.164;16.924;2023-05-07T07:23:13;31.70;34.20
21801;DHT22;11062;51.164;16.924;2023-05-07T07:25:39;31.70;34.30
21801;DHT22;11062;51.164;16.924;2023-05-07T07:28:08;31.40;34.10
21801;DHT22;11062;51.164;16.924;2023-05-07T07:30:34;31.40;34.30
21801;DHT22;11062;51.164;16.924;2023-05-07T07:33:12;31.30;34.30
21801;DHT22;11062;51.164;16.924;2023-05-07T07:35:38;31.50;35.10
21801;DHT22;11062;51.164;16.924;2023-05-07T07:38:07;31.50;34.10
21801;DHT22;11062;51.164;16.924;2023-05-07T07:40:35;31.70;34.30
21801;DHT22;11062;51.164;16.924;2023-05-07T07:43:01;31.80;33.90
21801;DHT22;11062;51.164;16.924;2023-05-07T07:45:38;31.90;34.00
21801;DHT22;11062;51.164;16.924;2023-05-07T07:48:04;32.10;33.90
21801;DHT22;11062;51.164;16.924;2023-05-07T07:50:30;32.20;33.90
21801;DHT22;11062;51.164;16.924;2023-05-07T07:52:59;32.40;34.10
21801;DHT22;11062;51.164;16.924;2023-05-07T07:55:25;32.40;34.00
21801;DHT22;11062;51.164;16.924;2023-05-07T07:57:52;32.30;33.80
21801;DHT22;11062;51.164;16.924;2023-05-07T08:00:27;32.40;34.00
21801;DHT22;11062;51.164;16.924;2023-05-07T08:02:53;32.30;34.00
21801;DHT22;11062;51.164;16.924;2023-05-07T08:05:22;32.30;33.90
21801;DHT22;11062;51.164;16.924;2023-05-07T08:07:50;32.30;34.00
21801;DHT22;11062;51.164;16.924;2023-05-07T08:20:28;30.40;45.70
21801;DHT22;11062;51.164;16.924;2023-05-07T08:22:54;32.10;38.70
21801;DHT22;11062;51.164;16.924;2023-05-07T08:25:20;30.50;41.60
21801;DHT22;11062;51.164;16.924;2023-05-07T08:30:18;30.50;35.40
21801;DHT22;11062;51.164;16.924;2023-05-07T08:40:07;30.30;35.20
21801;DHT22;11062;51.164;16.924;2023-05-07T09:24:53;28.80;35.10
21801;DHT22;11062;51.164;16.924;2023-05-07T09:27:22;30.00;35.70
21801;DHT22;11062;51.164;16.924;2023-05-07T09:29:50;30.30;37.50
21801;DHT22;11062;51.164;16.924;2023-05-07T09:32:21;29.00;37.40
21801;DHT22;11062;51.164;16.924;2023-05-07T09:34:50;30.50;40.00
21801;DHT22;11062;51.164;16.924;2023-05-07T09:37:25;29.70;39.10
21801;DHT22;11062;51.164;16.924;2023-05-07T09:39:51;30.00;37.50
21801;DHT22;11062;51.164;16.924;2023-05-07T09:42:24;28.90;37.20
21801;DHT22;11062;51.164;16.924;2023-05-07T09:44:56;29.00;37.10
21801;DHT22;11062;51.164;16.924;2023-05-07T09:47:38;29.20;38.60
21801;DHT22;11062;51.164;16.924;2023-05-07T09:50:28;30.80;37.10
21801;DHT22;11062;51.164;16.924;2023-05-07T09:52:55;30.90;36.90
21801;DHT22;11062;51.164;16.924;2023-05-07T09:55:24;30.30;36.60
21801;DHT22;11062;51.164;16.924;2023-05-07T09:57:52;30.70;36.70
21801;DHT22;11062;51.164;16.924;2023-05-07T10:00:24;30.10;36.30
21801;DHT22;11062;51.164;16.924;2023-05-07T10:03:02;30.50;36.50
21801;DHT22;11062;51.164;16.924;2023-05-07T10:05:31;30.00;34.80
21801;DHT22;11062;51.164;16.924;2023-05-07T10:08:03;30.70;36.20
21801;DHT22;11062;51.164;16.924;2023-05-07T10:10:36;31.70;36.00
21801;DHT22;11062;51.164;16.924;2023-05-07T10:13:03;29.90;33.60
21801;DHT22;11062;51.164;16.924;2023-05-07T10:15:44;31.10;34.90
21801;DHT22;11062;51.164;16.924;2023-05-07T10:18:13;30.70;34.30
21801;DHT22;11062;51.164;16.924;2023-05-07T10:20:43;30.90;34.50
21801;DHT22;11062;51.164;16.924;2023-05-07T10:23:17;31.10;34.70
21801;DHT22;11062;51.164;16.924;2023-05-07T10:25:45;30.20;33.10
21801;DHT22;11062;51.164;16.924;2023-05-07T10:28:12;31.30;34.90
21801;DHT22;11062;51.164;16.924;2023-05-07T10:30:58;31.20;34.10
21801;DHT22;11062;51.164;16.924;2023-05-07T10:33:31;31.30;34.00
21801;DHT22;11062;51.164;16.924;2023-05-07T10:36:00;31.00;34.10
21801;DHT22;11062;51.164;16.924;2023-05-07T10:38:33;31.40;34.50
21801;DHT22;11062;51.164;16.924;2023-05-07T10:41:09;30.50;33.20
21801;DHT22;11062;51.164;16.924;2023-05-07T10:43:44;31.50;34.10
21801;DHT22;11062;51.164;16.924;2023-05-07T10:46:20;31.60;34.40
21801;DHT22;11062;51.164;16.924;2023-05-07T10:51:32;31.20;33.00
21801;DHT22;11062;51.164;16.924;2023-05-07T11:19:04;32.30;33.50
21801;DHT22;11062;51.164;16.924;2023-05-07T11:21:38;32.30;34.50
21801;DHT22;11062;51.164;16.924;2023-05-07T11:24:17;31.10;33.50
21801;DHT22;11062;51.164;16.924;2023-05-07T13:00:51;30.60;31.90
21801;DHT22;11062;51.164;16.924;2023-05-07T13:03:30;32.00;34.20
21801;DHT22;11062;51.164;16.924;2023-05-07T13:06:09;32.40;33.40
21801;DHT22;11062;51.164;16.924;2023-05-07T13:08:42;31.60;32.60
21801;DHT22;11062;51.164;16.924;2023-05-07T13:11:10;32.30;34.40
21801;DHT22;11062;51.164;16.924;2023-05-07T13:13:38;31.60;34.00
21801;DHT22;11062;51.164;16.924;2023-05-07T13:16:09;30.20;33.00
21801;DHT22;11062;51.164;16.924;2023-05-07T13:18:40;31.70;34.10
21801;DHT22;11062;51.164;16.924;2023-05-07T13:21:13;32.20;34.50
21801;DHT22;11062;51.164;16.924;2023-05-07T13:23:40;31.70;34.70
21801;DHT22;11062;51.164;16.924;2023-05-07T13:26:09;30.50;35.10
21801;DHT22;11062;51.164;16.924;2023-05-07T13:28:36;29.90;31.70
21801;DHT22;11062;51.164;16.924;2023-05-07T13:31:02;31.20;35.10
21801;DHT22;11062;51.164;16.924;2023-05-07T13:33:34;30.90;35.50
21801;DHT22;11062;51.164;16.924;2023-05-07T13:36:03;31.10;35.70
21801;DHT22;11062;51.164;16.924;2023-05-07T13:38:33;31.10;34.00
21801;DHT22;11062;51.164;16.924;2023-05-07T13:40:59;31.50;36.00
21801;DHT22;11062;51.164;16.924;2023-05-07T13:43:27;31.60;35.80
21801;DHT22;11062;51.164;16.924;2023-05-07T13:45:58;30.20;33.30
21801;DHT22;11062;51.164;16.924;2023-05-07T13:48:35;30.20;33.60
21801;DHT22;11062;51.164;16.924;2023-05-07T13:51:01;30.60;35.50
21801;DHT22;11062;51.164;16.924;2023-05-07T13:53:33;30.40;35.00
21801;DHT22;11062;51.164;16.924;2023-05-07T13:56:05;31.80;33.30
21801;DHT22;11062;51.164;16.924;2023-05-07T13:58:39;31.50;33.50
21801;DHT22;11062;51.164;16.924;2023-05-07T14:01:05;31.30;34.20
21801;DHT22;11062;51.164;16.924;2023-05-07T14:03:36;31.70;35.00
21801;DHT22;11062;51.164;16.924;2023-05-07T14:06:05;30.40;32.60
21801;DHT22;11062;51.164;16.924;2023-05-07T14:08:34;32.00;35.20
21801;DHT22;11062;51.164;16.924;2023-05-07T14:11:05;31.50;35.80
21801;DHT22;11062;51.164;16.924;2023-05-07T14:13:31;30.60;32.30
21801;DHT22;11062;51.164;16.924;2023-05-07T14:15:59;29.90;35.00
21801;DHT22;11062;51.164;16.924;2023-05-07T14:18:26;30.70;35.30
21801;DHT22;11062;51.164;16.924;2023-05-07T14:20:57;31.00;33.90
21801;DHT22;11062;51.164;16.924;2023-05-07T14:23:35;31.70;35.50
21801;DHT22;11062;51.164;16.924;2023-05-07T14:26:04;30.80;32.20
21801;DHT22;11062;51.164;16.924;2023-05-07T14:28:36;31.40;34.00
21801;DHT22;11062;51.164;16.924;2023-05-07T14:31:05;31.00;35.30
21801;DHT22;11062;51.164;16.924;2023-05-07T14:33:43;31.80;34.30
21801;DHT22;11062;51.164;16.924;2023-05-07T14:36:11;31.70;34.00
21801;DHT22;11062;51.164;16.924;2023-05-07T14:38:40;31.50;33.10
21801;DHT22;11062;51.164;16.924;2023-05-07T14:41:12;29.90;35.20
21801;DHT22;11062;51.164;16.924;2023-05-07T14:43:38;31.70;34.70
21801;DHT22;11062;51.164;16.924;2023-05-07T14:46:07;31.50;35.30
21801;DHT22;11062;51.164;16.924;2023-05-07T14:48:33;31.30;34.60
21801;DHT22;11062;51.164;16.924;2023-05-07T14:51:02;31.30;36.70
21801;DHT22;11062;51.164;16.924;2023-05-07T14:53:28;31.10;36.60
21801;DHT22;11062;51.164;16.924;2023-05-07T14:56:03;29.80;34.40
21801;DHT22;11062;51.164;16.924;2023-05-07T14:58:32;31.20;35.10
21801;DHT22;11062;51.164;16.924;2023-05-07T15:01:01;31.90;36.40
21801;DHT22;11062;51.164;16.924;2023-05-07T15:03:27;30.30;34.20
21801;DHT22;11062;51.164;16.924;2023-05-07T15:05:56;30.90;36.20
21801;DHT22;11062;51.164;16.924;2023-05-07T15:08:25;31.80;33.60
21801;DHT22;11062;51.164;16.924;2023-05-07T15:10:53;31.50;34.40
21801;DHT22;11062;51.164;16.924;2023-05-07T15:13:22;31.90;35.00
21801;DHT22;11062;51.164;16.924;2023-05-07T15:15:48;30.90;35.40
21801;DHT22;11062;51.164;16.924;2023-05-07T15:18:20;30.00;33.70
21801;DHT22;11062;51.164;16.924;2023-05-07T15:20:47;29.50;31.80
21801;DHT22;11062;51.164;16.924;2023-05-07T15:23:13;30.30;35.20
21801;DHT22;11062;51.164;16.924;2023-05-07T15:25:42;32.20;36.80
21801;DHT22;11062;51.164;16.924;2023-05-07T15:28:09;30.70;33.20
21801;DHT22;11062;51.164;16.924;2023-05-07T15:30:38;30.70;35.20
21801;DHT22;11062;51.164;16.924;2023-05-07T15:33:04;31.80;34.50
21801;DHT22;11062;51.164;16.924;2023-05-07T15:35:30;31.40;35.60
21801;DHT22;11062;51.164;16.924;2023-05-07T15:37:59;31.20;34.00
21801;DHT22;11062;51.164;16.924;2023-05-07T15:40:25;31.50;32.90
21801;DHT22;11062;51.164;16.924;2023-05-07T15:42:55;31.90;35.80
21801;DHT22;11062;51.164;16.924;2023-05-07T15:45:22;31.50;34.10
21801;DHT22;11062;51.164;16.924;2023-05-07T15:47:51;31.80;34.20
21801;DHT22;11062;51.164;16.924;2023-05-07T15:50:24;30.60;33.70
21801;DHT22;11062;51.164;16.924;2023-05-07T15:52:50;30.20;31.70
21801;DHT22;11062;51.164;16.924;2023-05-07T15:55:19;30.50;33.20
21801;DHT22;11062;51.164;16.924;2023-05-07T15:57:48;31.40;33.60
21801;DHT22;11062;51.164;16.924;2023-05-07T16:00:19;31.20;34.00
21801;DHT22;11062;51.164;16.924;2023-05-07T16:02:45;31.80;34.10
21801;DHT22;11062;51.164;16.924;2023-05-07T16:05:14;30.40;33.50
21801;DHT22;11062;51.164;16.924;2023-05-07T16:07:43;30.10;33.90
21801;DHT22;11062;51.164;16.924;2023-05-07T16:10:14;30.80;35.30
21801;DHT22;11062;51.164;16.924;2023-05-07T16:12:43;31.90;35.00
21801;DHT22;11062;51.164;16.924;2023-05-07T16:15:12;32.30;35.40
21801;DHT22;11062;51.164;16.924;2023-05-07T16:17:38;29.70;32.40
21801;DHT22;11062;51.164;16.924;2023-05-07T16:20:05;30.00;35.50
21801;DHT22;11062;51.164;16.924;2023-05-07T16:22:39;31.10;34.40
21801;DHT22;11062;51.164;16.924;2023-05-07T16:25:13;30.40;32.90
21801;DHT22;11062;51.164;16.924;2023-05-07T16:27:39;31.20;34.50
21801;DHT22;11062;51.164;16.924;2023-05-07T16:30:11;31.00;34.60
21801;DHT22;11062;51.164;16.924;2023-05-07T16:32:40;31.40;35.00
21801;DHT22;11062;51.164;16.924;2023-05-07T16:35:07;31.50;36.60
21801;DHT22;11062;51.164;16.924;2023-05-07T16:37:35;31.70;34.90
21801;DHT22;11062;51.164;16.924;2023-05-07T16:40:09;30.80;34.60
21801;DHT22;11062;51.164;16.924;2023-05-07T16:42:36;30.20;34.30
21801;DHT22;11062;51.164;16.924;2023-05-07T16:45:05;30.80;35.10
21801;DHT22;11062;51.164;16.924;2023-05-07T16:47:31;30.60;35.20
21801;DHT22;11062;51.164;16.924;2023-05-07T16:50:36;31.30;35.30
21801;DHT22;11062;51.164;16.924;2023-05-07T16:53:02;31.50;35.40
21801;DHT22;11062;51.164;16.924;2023-05-07T16:55:31;30.90;35.20
21801;DHT22;11062;51.164;16.924;2023-05-07T16:58:21;29.50;34.10
21801;DHT22;11062;51.164;16.924;2023-05-07T17:00:50;30.50;34.60
21801;DHT22;11062;51.164;16.924;2023-05-07T17:03:17;31.70;34.00
21801;DHT22;11062;51.164;16.924;2023-05-07T17:05:49;30.40;34.30
21801;DHT22;11062;51.164;16.924;2023-05-07T17:08:18;30.60;34.60
21801;DHT22;11062;51.164;16.924;2023-05-07T17:10:44;30.70;36.50
21801;DHT22;11062;51.164;16.924;2023-05-07T17:13:13;30.20;36.30
21801;DHT22;11062;51.164;16.924;2023-05-07T17:15:41;31.20;35.60
21801;DHT22;11062;51.164;16.924;2023-05-07T17:18:09;31.10;36.80
21801;DHT22;11062;51.164;16.924;2023-05-07T17:20:38;31.10;35.30
21801;DHT22;11062;51.164;16.924;2023-05-07T17:23:05;31.80;37.40
21801;DHT22;11062;51.164;16.924;2023-05-07T17:25:33;31.00;35.30
21801;DHT22;11062;51.164;16.924;2023-05-07T17:28:01;31.20;34.80
21801;DHT22;11062;51.164;16.924;2023-05-07T17:30:36;31.40;36.20
21801;DHT22;11062;51.164;16.924;2023-05-07T17:33:05;29.70;36.20
21801;DHT22;11062;51.164;16.924;2023-05-07T17:35:34;30.90;34.80
21801;DHT22;11062;51.164;16.924;2023-05-07T17:38:01;31.20;37.10
21801;DHT22;11062;51.164;16.924;2023-05-07T17:40:28;30.10;34.20
21801;DHT22;11062;51.164;16.924;2023-05-07T17:43:01;31.70;35.80
21801;DHT22;11062;51.164;16.924;2023-05-07T17:45:27;31.30;33.90
21801;DHT22;11062;51.164;16.924;2023-05-07T17:47:58;30.30;34.90
21801;DHT22;11062;51.164;16.924;2023-05-07T17:50:25;31.50;36.80
21801;DHT22;11062;51.164;16.924;2023-05-07T18:44:14;30.80;34.70
21801;DHT22;11062;51.164;16.924;2023-05-07T18:46:44;29.00;33.40
21801;DHT22;11062;51.164;16.924;2023-05-07T18:49:15;29.00;36.50
21801;DHT22;11062;51.164;16.924;2023-05-07T18:51:41;28.90;37.30
21801;DHT22;11062;51.164;16.924;2023-05-07T18:54:09;29.40;37.10
21801;DHT22;11062;51.164;16.924;2023-05-07T18:56:35;29.90;37.50
21801;DHT22;11062;51.164;16.924;2023-05-07T18:59:04;30.20;36.30
21801;DHT22;11062;51.164;16.924;2023-05-07T19:01:30;29.10;37.50
21801;DHT22;11062;51.164;16.924;2023-05-07T19:03:56;29.90;38.40
21801;DHT22;11062;51.164;16.924;2023-05-07T19:06:22;30.00;36.60
21801;DHT22;11062;51.164;16.924;2023-05-07T19:08:51;30.40;38.10
21801;DHT22;11062;51.164;16.924;2023-05-07T19:11:22;30.50;35.90
21801;DHT22;11062;51.164;16.924;2023-05-07T19:13:51;30.70;36.30
21801;DHT22;11062;51.164;16.924;2023-05-07T19:16:20;30.60;38.30
21801;DHT22;11062;51.164;16.924;2023-05-07T19:18:50;29.00;33.90
21801;DHT22;11062;51.164;16.924;2023-05-07T19:21:19;30.20;35.90
21801;DHT22;11062;51.164;16.924;2023-05-07T19:23:48;29.40;35.60
21801;DHT22;11062;51.164;16.924;2023-05-07T19:26:18;30.50;36.50
21801;DHT22;11062;51.164;16.924;2023-05-07T19:28:48;30.60;37.10
21801;DHT22;11062;51.164;16.924;2023-05-07T19:31:24;30.70;37.30
21801;DHT22;11062;51.164;16.924;2023-05-07T19:34:06;30.20;38.00
21801;DHT22;11062;51.164;16.924;2023-05-07T19:36:37;29.50;34.40
21801;DHT22;11062;51.164;16.924;2023-05-07T20:06:59;30.20;34.30
21801;DHT22;11062;51.164;16.924;2023-05-07T20:09:27;28.80;33.30
21801;DHT22;11062;51.164;16.924;2023-05-07T20:11:56;29.70;36.10
21801;DHT22;11062;51.164;16.924;2023-05-07T20:14:25;29.40;37.40
21801;DHT22;11062;51.164;16.924;2023-05-07T20:16:53;29.70;34.00